sensor_id;sensor_type;location;lat;lon;timestamp;P1;durP1;ratioP1;P2;durP2;ratioP2
35632;SDS011;21754;48.216;-1.628;2022-08-25T00:00:16;4.60;;;2.85;;
35632;SDS011;21754;48.216;-1.628;2022-08-25T00:02:42;4.38;;;3.58;;
35632;SDS011;21754;48.216;-1.628;2022-08-25T00:05:08;9.43;;;3.42;;
35632;SDS011;21754;48.216;-1.628;2022-08-25T00:07:34;7.03;;;3.10;;
35632;SDS011;21754;48.216;-1.628;2022-08-25T00:10:00;10.07;;;3.38;;
35632;SDS011;21754;48.216;-1.628;2022-08-25T00:12:26;9.23;;;3.30;;
35632;SDS011;21754;48.216;-1.628;2022-08-25T00:14:51;12.00;;;3.75;;
35632;SDS011;21754;48.216;-1.628;2022-08-25T00:17:17;8.73;;;4.25;;
35632;SDS011;21754;48.216;-1.628;2022-08-25T00:19:43;6.22;;;3.55;;
35632;SDS011;21754;48.216;-1.628;2022-08-25T00:22:09;8.73;;;3.88;;
35632;SDS011;21754;48.216;-1.628;2022-08-25T00:24:34;8.63;;;3.95;;
35632;SDS011;21754;48.216;-1.628;2022-08-25T00:27:00;7.53;;;3.95;;
35632;SDS011;21754;48.216;-1.628;2022-08-25T00:29:28;5.93;;;4.13;;
35632;SDS011;21754;48.216;-1.628;2022-08-25T00:31:54;9.32;;;4.80;;
35632;SDS011;21754;48.216;-1.628;2022-08-25T00:34:22;5.38;;;3.53;;
35632;SDS011;21754;48.216;-1.628;2022-08-25T00:36:50;6.20;;;4.10;;
35632;SDS011;21754;48.216;-1.628;2022-08-25T00:39:16;4.65;;;4.22;;
35632;SDS011;21754;48.216;-1.628;2022-08-25T00:41:45;7.97;;;5.05;;
35632;SDS011;21754;48.216;-1.628;2022-08-25T00:44:12;7.72;;;4.95;;
35632;SDS011;21754;48.216;-1.628;2022-08-25T00:47:01;10.52;;;5.13;;
35632;SDS011;21754;48.216;-1.628;2022-08-25T00:52:23;6.85;;;4.40;;
35632;SDS011;21754;48.216;-1.628;2022-08-25T00:55:00;6.68;;;5.55;;
35632;SDS011;21754;48.216;-1.628;2022-08-25T00:57:32;14.10;;;5.40;;
35632;SDS011;21754;48.216;-1.628;2022-08-25T01:00:21;6.10;;;4.97;;
35632;SDS011;21754;48.216;-1.628;2022-08-25T01:02:49;16.23;;;5.55;;
35632;SDS011;21754;48.216;-1.628;2022-08-25T01:05:16;9.32;;;5.57;;
35632;SDS011;21754;48.216;-1.628;2022-08-25T01:07:43;12.13;;;5.20;;
35632;SDS011;21754;48.216;-1.628;2022-08-25T01:10:09;8.73;;;5.72;;
35632;SDS011;21754;48.216;-1.628;2022-08-25T01:12:37;8.90;;;6.40;;
35632;SDS011;21754;48.216;-1.628;2022-08-25T01:15:05;8.80;;;6.28;;
35632;SDS011;21754;48.216;-1.628;2022-08-25T01:17:33;13.65;;;7.13;;
35632;SDS011;21754;48.216;-1.628;2022-08-25T01:22:46;13.80;;;7.25;;
35632;SDS011;21754;48.216;-1.628;2022-08-25T01:27:57;18.38;;;9.18;;
35632;SDS011;21754;48.216;-1.628;2022-08-25T01:30:23;12.30;;;7.95;;
35632;SDS011;21754;48.216;-1.628;2022-08-25T01:32:49;14.32;;;8.60;;
35632;SDS011;21754;48.216;-1.628;2022-08-25T01:35:15;14.13;;;8.40;;
35632;SDS011;21754;48.216;-1.628;2022-08-25T01:37:41;10.75;;;7.45;;
35632;SDS011;21754;48.216;-1.628;2022-08-25T01:40:07;19.33;;;8.80;;
35632;SDS011;21754;48.216;-1.628;2022-08-25T01:45:18;16.05;;;8.80;;
35632;SDS011;21754;48.216;-1.628;2022-08-25T01:47:45;16.55;;;9.63;;
35632;SDS011;21754;48.216;-1.628;2022-08-25T01:50:11;20.38;;;10.27;;
35632;SDS011;21754;48.216;-1.628;2022-08-25T01:52:44;16.75;;;10.10;;
35632;SDS011;21754;48.216;-1.628;2022-08-25T01:55:10;16.42;;;10.70;;
35632;SDS011;21754;48.216;-1.628;2022-08-25T01:57:36;18.00;;;9.27;;
35632;SDS011;21754;48.216;-1.628;2022-08-25T02:00:07;15.77;;;8.65;;
35632;SDS011;21754;48.216;-1.628;2022-08-25T02:02:33;17.33;;;9.25;;
35632;SDS011;21754;48.216;-1.628;2022-08-25T02:04:59;14.57;;;8.13;;
35632;SDS011;21754;48.216;-1.628;2022-08-25T02:07:25;10.82;;;8.07;;
35632;SDS011;21754;48.216;-1.628;2022-08-25T02:09:51;14.82;;;7.93;;
35632;SDS011;21754;48.216;-1.628;2022-08-25T02:12:17;21.30;;;8.38;;
35632;SDS011;21754;48.216;-1.628;2022-08-25T02:14:44;11.55;;;6.75;;
35632;SDS011;21754;48.216;-1.628;2022-08-25T02:17:10;15.48;;;7.88;;
35632;SDS011;21754;48.216;-1.628;2022-08-25T02:19:36;9.40;;;6.45;;
35632;SDS011;21754;48.216;-1.628;2022-08-25T02:22:02;9.63;;;6.80;;
35632;SDS011;21754;48.216;-1.628;2022-08-25T02:24:28;10.30;;;6.90;;
35632;SDS011;21754;48.216;-1.628;2022-08-25T02:26:54;12.50;;;7.53;;
35632;SDS011;21754;48.216;-1.628;2022-08-25T02:29:22;9.32;;;7.13;;
35632;SDS011;21754;48.216;-1.628;2022-08-25T02:31:48;12.02;;;6.63;;
35632;SDS011;21754;48.216;-1.628;2022-08-25T02:34:14;7.43;;;5.78;;
35632;SDS011;21754;48.216;-1.628;2022-08-25T02:36:40;15.48;;;6.47;;
35632;SDS011;21754;48.216;-1.628;2022-08-25T02:39:07;7.95;;;6.70;;
35632;SDS011;21754;48.216;-1.628;2022-08-25T02:41:34;9.57;;;6.22;;
35632;SDS011;21754;48.216;-1.628;2022-08-25T02:44:00;10.98;;;5.43;;
35632;SDS011;21754;48.216;-1.628;2022-08-25T02:46:27;8.27;;;5.50;;
35632;SDS011;21754;48.216;-1.628;2022-08-25T02:48:53;10.02;;;5.43;;
35632;SDS011;21754;48.216;-1.628;2022-08-25T02:51:20;8.25;;;5.47;;
35632;SDS011;21754;48.216;-1.628;2022-08-25T02:53:46;8.00;;;5.70;;
35632;SDS011;21754;48.216;-1.628;2022-08-25T02:56:13;6.88;;;5.55;;
35632;SDS011;21754;48.216;-1.628;2022-08-25T02:58:40;8.73;;;5.10;;
35632;SDS011;21754;48.216;-1.628;2022-08-25T03:01:06;7.90;;;3.72;;
35632;SDS011;21754;48.216;-1.628;2022-08-25T03:03:35;4.85;;;3.53;;
35632;SDS011;21754;48.216;-1.628;2022-08-25T03:06:01;4.25;;;3.85;;
35632;SDS011;21754;48.216;-1.628;2022-08-25T03:08:27;9.68;;;3.78;;
35632;SDS011;21754;48.216;-1.628;2022-08-25T03:10:53;3.17;;;2.88;;
35632;SDS011;21754;48.216;-1.628;2022-08-25T03:13:19;3.20;;;2.80;;
35632;SDS011;21754;48.216;-1.628;2022-08-25T03:15:45;4.45;;;2.88;;
35632;SDS011;21754;48.216;-1.628;2022-08-25T03:18:11;4.00;;;3.60;;
35632;SDS011;21754;48.216;-1.628;2022-08-25T03:20:37;3.85;;;2.75;;
35632;SDS011;21754;48.216;-1.628;2022-08-25T03:23:04;3.72;;;2.38;;
35632;SDS011;21754;48.216;-1.628;2022-08-25T03:25:30;3.50;;;2.17;;
35632;SDS011;21754;48.216;-1.628;2022-08-25T03:28:15;4.68;;;2.75;;
35632;SDS011;21754;48.216;-1.628;2022-08-25T03:30:41;7.53;;;2.75;;
35632;SDS011;21754;48.216;-1.628;2022-08-25T03:33:08;2.80;;;2.10;;
35632;SDS011;21754;48.216;-1.628;2022-08-25T03:35:35;4.40;;;2.17;;
35632;SDS011;21754;48.216;-1.628;2022-08-25T03:38:01;2.45;;;2.25;;
35632;SDS011;21754;48.216;-1.628;2022-08-25T03:40:27;6.38;;;2.25;;
35632;SDS011;21754;48.216;-1.628;2022-08-25T03:42:53;3.55;;;2.70;;
35632;SDS011;21754;48.216;-1.628;2022-08-25T03:47:47;2.58;;;2.08;;
35632;SDS011;21754;48.216;-1.628;2022-08-25T03:50:14;2.03;;;1.92;;
35632;SDS011;21754;48.216;-1.628;2022-08-25T03:52:40;2.22;;;2.03;;
35632;SDS011;21754;48.216;-1.628;2022-08-25T03:55:07;4.32;;;2.10;;
35632;SDS011;21754;48.216;-1.628;2022-08-25T03:57:34;2.42;;;1.88;;
35632;SDS011;21754;48.216;-1.628;2022-08-25T04:00:00;2.13;;;1.92;;
35632;SDS011;21754;48.216;-1.628;2022-08-25T04:02:26;5.13;;;2.25;;
35632;SDS011;21754;48.216;-1.628;2022-08-25T04:04:52;2.33;;;2.15;;
35632;SDS011;21754;48.216;-1.628;2022-08-25T04:07:18;4.15;;;2.10;;
35632;SDS011;21754;48.216;-1.628;2022-08-25T04:09:44;5.45;;;2.00;;
35632;SDS011;21754;48.216;-1.628;2022-08-25T04:12:10;10.20;;;3.15;;
35632;SDS011;21754;48.216;-1.628;2022-08-25T04:14:36;4.35;;;2.53;;
35632;SDS011;21754;48.216;-1.628;2022-08-25T04:17:03;7.68;;;2.22;;
35632;SDS011;21754;48.216;-1.628;2022-08-25T04:19:29;6.28;;;3.40;;
35632;SDS011;21754;48.216;-1.628;2022-08-25T04:21:55;2.22;;;2.03;;
35632;SDS011;21754;48.216;-1.628;2022-08-25T04:24:21;5.88;;;2.75;;
35632;SDS011;21754;48.216;-1.628;2022-08-25T04:26:48;2.35;;;2.15;;
35632;SDS011;21754;48.216;-1.628;2022-08-25T04:29:17;4.45;;;2.10;;
35632;SDS011;21754;48.216;-1.628;2022-08-25T04:31:43;4.55;;;2.10;;
35632;SDS011;21754;48.216;-1.628;2022-08-25T04:34:14;1.77;;;1.63;;
35632;SDS011;21754;48.216;-1.628;2022-08-25T04:36:40;2.42;;;2.22;;
35632;SDS011;21754;48.216;-1.628;2022-08-25T04:39:07;5.65;;;2.25;;
35632;SDS011;21754;48.216;-1.628;2022-08-25T04:41:33;11.50;;;2.80;;
35632;SDS011;21754;48.216;-1.628;2022-08-25T04:43:59;2.40;;;2.20;;
35632;SDS011;21754;48.216;-1.628;2022-08-25T04:46:29;3.97;;;2.22;;
35632;SDS011;21754;48.216;-1.628;2022-08-25T04:48:56;7.32;;;2.60;;
35632;SDS011;21754;48.216;-1.628;2022-08-25T04:51:24;3.47;;;2.90;;
35632;SDS011;21754;48.216;-1.628;2022-08-25T04:53:51;3.78;;;2.90;;
35632;SDS011;21754;48.216;-1.628;2022-08-25T04:56:20;7.93;;;4.03;;
35632;SDS011;21754;48.216;-1.628;2022-08-25T04:58:49;5.93;;;2.72;;
35632;SDS011;21754;48.216;-1.628;2022-08-25T05:01:16;5.65;;;3.08;;
35632;SDS011;21754;48.216;-1.628;2022-08-25T05:03:43;3.60;;;3.30;;
35632;SDS011;21754;48.216;-1.628;2022-08-25T05:06:09;4.43;;;2.88;;
35632;SDS011;21754;48.216;-1.628;2022-08-25T05:08:36;7.10;;;2.83;;
35632;SDS011;21754;48.216;-1.628;2022-08-25T05:11:06;5.00;;;2.50;;
35632;SDS011;21754;48.216;-1.628;2022-08-25T05:13:33;4.03;;;3.72;;
35632;SDS011;21754;48.216;-1.628;2022-08-25T05:15:59;4.40;;;3.22;;
35632;SDS011;21754;48.216;-1.628;2022-08-25T05:18:26;3.85;;;2.80;;
35632;SDS011;21754;48.216;-1.628;2022-08-25T05:20:52;6.70;;;4.07;;
35632;SDS011;21754;48.216;-1.628;2022-08-25T05:23:19;3.08;;;2.88;;
35632;SDS011;21754;48.216;-1.628;2022-08-25T05:25:46;5.20;;;2.90;;
35632;SDS011;21754;48.216;-1.628;2022-08-25T05:28:12;3.03;;;2.65;;
35632;SDS011;21754;48.216;-1.628;2022-08-25T05:30:39;6.95;;;3.25;;
35632;SDS011;21754;48.216;-1.628;2022-08-25T05:33:06;3.58;;;3.25;;
35632;SDS011;21754;48.216;-1.628;2022-08-25T05:35:32;6.03;;;2.83;;
35632;SDS011;21754;48.216;-1.628;2022-08-25T05:37:58;5.05;;;3.65;;
35632;SDS011;21754;48.216;-1.628;2022-08-25T05:40:24;8.55;;;3.90;;
35632;SDS011;21754;48.216;-1.628;2022-08-25T05:42:50;7.38;;;3.33;;
35632;SDS011;21754;48.216;-1.628;2022-08-25T05:45:16;7.35;;;2.67;;
35632;SDS011;21754;48.216;-1.628;2022-08-25T05:47:42;5.68;;;2.85;;
35632;SDS011;21754;48.216;-1.628;2022-08-25T05:50:09;8.40;;;2.92;;
35632;SDS011;21754;48.216;-1.628;2022-08-25T05:52:35;5.20;;;3.65;;
35632;SDS011;21754;48.216;-1.628;2022-08-25T05:55:01;8.55;;;2.58;;
35632;SDS011;21754;48.216;-1.628;2022-08-25T05:57:27;5.50;;;3.60;;
35632;SDS011;21754;48.216;-1.628;2022-08-25T05:59:53;9.20;;;2.63;;
35632;SDS011;21754;48.216;-1.628;2022-08-25T06:02:19;10.10;;;3.85;;
35632;SDS011;21754;48.216;-1.628;2022-08-25T06:05:03;5.15;;;2.35;;
35632;SDS011;21754;48.216;-1.628;2022-08-25T06:07:30;12.30;;;2.60;;
35632;SDS011;21754;48.216;-1.628;2022-08-25T06:09:56;5.53;;;2.45;;
35632;SDS011;21754;48.216;-1.628;2022-08-25T06:12:22;4.07;;;2.30;;
35632;SDS011;21754;48.216;-1.628;2022-08-25T06:14:48;4.18;;;2.53;;
35632;SDS011;21754;48.216;-1.628;2022-08-25T06:17:14;8.93;;;2.88;;
35632;SDS011;21754;48.216;-1.628;2022-08-25T06:19:41;4.82;;;2.40;;
35632;SDS011;21754;48.216;-1.628;2022-08-25T06:22:07;4.53;;;2.90;;
35632;SDS011;21754;48.216;-1.628;2022-08-25T06:24:33;5.53;;;2.63;;
35632;SDS011;21754;48.216;-1.628;2022-08-25T06:26:59;4.43;;;2.63;;
35632;SDS011;21754;48.216;-1.628;2022-08-25T06:29:25;9.43;;;3.00;;
35632;SDS011;21754;48.216;-1.628;2022-08-25T06:31:51;12.27;;;3.20;;
35632;SDS011;21754;48.216;-1.628;2022-08-25T06:34:18;5.72;;;4.22;;
35632;SDS011;21754;48.216;-1.628;2022-08-25T06:36:44;4.85;;;2.72;;
35632;SDS011;21754;48.216;-1.628;2022-08-25T06:39:11;9.60;;;2.67;;
35632;SDS011;21754;48.216;-1.628;2022-08-25T06:41:37;8.60;;;3.33;;
35632;SDS011;21754;48.216;-1.628;2022-08-25T06:44:03;9.15;;;2.45;;
35632;SDS011;21754;48.216;-1.628;2022-08-25T06:46:29;5.95;;;3.28;;
35632;SDS011;21754;48.216;-1.628;2022-08-25T06:48:56;7.13;;;2.38;;
35632;SDS011;21754;48.216;-1.628;2022-08-25T06:51:22;13.48;;;3.97;;
35632;SDS011;21754;48.216;-1.628;2022-08-25T06:53:50;4.43;;;2.50;;
35632;SDS011;21754;48.216;-1.628;2022-08-25T06:56:17;6.80;;;2.88;;
35632;SDS011;21754;48.216;-1.628;2022-08-25T06:58:44;10.82;;;3.42;;
35632;SDS011;21754;48.216;-1.628;2022-08-25T07:01:11;14.32;;;4.13;;
35632;SDS011;21754;48.216;-1.628;2022-08-25T07:03:38;11.65;;;2.50;;
35632;SDS011;21754;48.216;-1.628;2022-08-25T07:06:04;8.10;;;3.53;;
35632;SDS011;21754;48.216;-1.628;2022-08-25T07:08:30;5.22;;;2.65;;
35632;SDS011;21754;48.216;-1.628;2022-08-25T07:10:57;13.98;;;2.53;;
35632;SDS011;21754;48.216;-1.628;2022-08-25T07:13:23;9.27;;;2.67;;
35632;SDS011;21754;48.216;-1.628;2022-08-25T07:15:52;8.55;;;1.90;;
35632;SDS011;21754;48.216;-1.628;2022-08-25T07:18:19;14.45;;;2.50;;
35632;SDS011;21754;48.216;-1.628;2022-08-25T07:20:45;20.05;;;3.92;;
35632;SDS011;21754;48.216;-1.628;2022-08-25T07:23:11;19.85;;;5.15;;
35632;SDS011;21754;48.216;-1.628;2022-08-25T07:25:37;10.18;;;3.60;;
35632;SDS011;21754;48.216;-1.628;2022-08-25T07:28:03;11.50;;;2.83;;
35632;SDS011;21754;48.216;-1.628;2022-08-25T07:30:29;12.45;;;3.28;;
35632;SDS011;21754;48.216;-1.628;2022-08-25T07:32:55;12.30;;;2.72;;
35632;SDS011;21754;48.216;-1.628;2022-08-25T07:35:22;9.85;;;2.22;;
35632;SDS011;21754;48.216;-1.628;2022-08-25T07:37:54;23.77;;;3.75;;
35632;SDS011;21754;48.216;-1.628;2022-08-25T07:40:31;11.60;;;2.80;;
35632;SDS011;21754;48.216;-1.628;2022-08-25T07:42:58;11.63;;;2.60;;
35632;SDS011;21754;48.216;-1.628;2022-08-25T07:45:25;18.75;;;2.55;;
35632;SDS011;21754;48.216;-1.628;2022-08-25T07:47:55;4.82;;;2.90;;
35632;SDS011;21754;48.216;-1.628;2022-08-25T07:50:22;12.87;;;3.00;;
35632;SDS011;21754;48.216;-1.628;2022-08-25T07:52:48;10.38;;;3.55;;
35632;SDS011;21754;48.216;-1.628;2022-08-25T07:55:15;9.48;;;3.88;;
35632;SDS011;21754;48.216;-1.628;2022-08-25T07:57:41;7.32;;;3.40;;
35632;SDS011;21754;48.216;-1.628;2022-08-25T08:00:08;15.07;;;2.95;;
35632;SDS011;21754;48.216;-1.628;2022-08-25T08:02:38;9.23;;;3.17;;
35632;SDS011;21754;48.216;-1.628;2022-08-25T08:05:04;12.70;;;3.60;;
35632;SDS011;21754;48.216;-1.628;2022-08-25T08:07:30;11.38;;;3.92;;
35632;SDS011;21754;48.216;-1.628;2022-08-25T08:09:56;12.95;;;3.22;;
35632;SDS011;21754;48.216;-1.628;2022-08-25T08:12:22;13.00;;;2.88;;
35632;SDS011;21754;48.216;-1.628;2022-08-25T08:14:49;15.20;;;2.92;;
35632;SDS011;21754;48.216;-1.628;2022-08-25T08:17:15;10.85;;;2.97;;
35632;SDS011;21754;48.216;-1.628;2022-08-25T08:19:41;11.13;;;3.78;;
35632;SDS011;21754;48.216;-1.628;2022-08-25T08:22:07;10.48;;;2.88;;
35632;SDS011;21754;48.216;-1.628;2022-08-25T08:24:35;10.32;;;2.40;;
35632;SDS011;21754;48.216;-1.628;2022-08-25T08:29:32;3.17;;;2.67;;
35632;SDS011;21754;48.216;-1.628;2022-08-25T08:32:02;6.97;;;3.20;;
35632;SDS011;21754;48.216;-1.628;2022-08-25T08:34:29;3.95;;;2.80;;
35632;SDS011;21754;48.216;-1.628;2022-08-25T08:36:55;4.07;;;2.95;;
35632;SDS011;21754;48.216;-1.628;2022-08-25T08:39:21;9.77;;;3.15;;
35632;SDS011;21754;48.216;-1.628;2022-08-25T08:41:52;4.00;;;2.10;;
35632;SDS011;21754;48.216;-1.628;2022-08-25T08:52:21;9.95;;;2.08;;
35632;SDS011;21754;48.216;-1.628;2022-08-25T08:54:57;2.45;;;1.80;;
35632;SDS011;21754;48.216;-1.628;2022-08-25T08:57:29;7.93;;;2.67;;
35632;SDS011;21754;48.216;-1.628;2022-08-25T09:00:00;6.03;;;1.73;;
35632;SDS011;21754;48.216;-1.628;2022-08-25T09:02:34;1.67;;;1.58;;
35632;SDS011;21754;48.216;-1.628;2022-08-25T09:05:08;3.03;;;1.20;;
35632;SDS011;21754;48.216;-1.628;2022-08-25T09:07:47;6.47;;;1.30;;
35632;SDS011;21754;48.216;-1.628;2022-08-25T09:10:17;5.35;;;1.20;;
35632;SDS011;21754;48.216;-1.628;2022-08-25T09:13:06;3.75;;;1.15;;
35632;SDS011;21754;48.216;-1.628;2022-08-25T09:24:25;1.70;;;1.02;;
35632;SDS011;21754;48.216;-1.628;2022-08-25T09:32:38;3.35;;;1.30;;
35632;SDS011;21754;48.216;-1.628;2022-08-25T09:35:06;11.25;;;1.52;;
35632;SDS011;21754;48.216;-1.628;2022-08-25T09:37:42;6.22;;;1.60;;
35632;SDS011;21754;48.216;-1.628;2022-08-25T09:40:18;2.50;;;1.50;;
35632;SDS011;21754;48.216;-1.628;2022-08-25T09:42:45;5.75;;;2.25;;
35632;SDS011;21754;48.216;-1.628;2022-08-25T09:45:13;5.38;;;1.38;;
35632;SDS011;21754;48.216;-1.628;2022-08-25T09:47:43;3.13;;;1.77;;
35632;SDS011;21754;48.216;-1.628;2022-08-25T09:50:16;2.92;;;1.33;;
35632;SDS011;21754;48.216;-1.628;2022-08-25T09:52:43;3.75;;;1.15;;
35632;SDS011;21754;48.216;-1.628;2022-08-25T10:00:17;1.23;;;1.13;;
35632;SDS011;21754;48.216;-1.628;2022-08-25T10:08:23;12.82;;;2.80;;
35632;SDS011;21754;48.216;-1.628;2022-08-25T10:10:54;3.95;;;1.33;;
35632;SDS011;21754;48.216;-1.628;2022-08-25T10:13:21;1.40;;;1.05;;
35632;SDS011;21754;48.216;-1.628;2022-08-25T10:16:10;3.63;;;1.13;;
35632;SDS011;21754;48.216;-1.628;2022-08-25T10:18:45;5.10;;;1.10;;
35632;SDS011;21754;48.216;-1.628;2022-08-25T10:22:02;1.60;;;0.80;;
35632;SDS011;21754;48.216;-1.628;2022-08-25T10:24:31;1.85;;;1.35;;
35632;SDS011;21754;48.216;-1.628;2022-08-25T10:30:16;5.38;;;0.80;;
35632;SDS011;21754;48.216;-1.628;2022-08-25T10:33:09;1.92;;;0.77;;
35632;SDS011;21754;48.216;-1.628;2022-08-25T10:40:58;3.60;;;0.50;;
35632;SDS011;21754;48.216;-1.628;2022-08-25T10:43:32;2.63;;;0.73;;
35632;SDS011;21754;48.216;-1.628;2022-08-25T10:51:34;3.92;;;0.98;;
35632;SDS011;21754;48.216;-1.628;2022-08-25T10:54:26;6.28;;;0.80;;
35632;SDS011;21754;48.216;-1.628;2022-08-25T11:04:46;0.60;;;0.60;;
35632;SDS011;21754;48.216;-1.628;2022-08-25T11:09:59;3.85;;;0.50;;
35632;SDS011;21754;48.216;-1.628;2022-08-25T11:12:31;2.40;;;0.80;;
35632;SDS011;21754;48.216;-1.628;2022-08-25T11:15:06;6.68;;;0.50;;
35632;SDS011;21754;48.216;-1.628;2022-08-25T11:20:27;3.20;;;0.40;;
35632;SDS011;21754;48.216;-1.628;2022-08-25T11:25:59;1.60;;;0.45;;
35632;SDS011;21754;48.216;-1.628;2022-08-25T11:31:00;4.28;;;0.57;;
35632;SDS011;21754;48.216;-1.628;2022-08-25T11:33:27;0.40;;;0.30;;
35632;SDS011;21754;48.216;-1.628;2022-08-25T11:35:58;0.43;;;0.43;;
35632;SDS011;21754;48.216;-1.628;2022-08-25T11:47:12;2.55;;;1.33;;
35632;SDS011;21754;48.216;-1.628;2022-08-25T11:50:31;3.22;;;0.40;;
35632;SDS011;21754;48.216;-1.628;2022-08-25T11:53:15;1.98;;;0.43;;
35632;SDS011;21754;48.216;-1.628;2022-08-25T11:56:09;0.43;;;0.35;;
35632;SDS011;21754;48.216;-1.628;2022-08-25T11:58:41;0.93;;;0.40;;
35632;SDS011;21754;48.216;-1.628;2022-08-25T12:04:15;1.13;;;0.40;;
35632;SDS011;21754;48.216;-1.628;2022-08-25T12:14:57;2.45;;;0.50;;
35632;SDS011;21754;48.216;-1.628;2022-08-25T12:28:34;0.75;;;0.50;;
35632;SDS011;21754;48.216;-1.628;2022-08-25T12:31:04;1.02;;;0.63;;
35632;SDS011;21754;48.216;-1.628;2022-08-25T12:33:54;0.57;;;0.40;;
35632;SDS011;21754;48.216;-1.628;2022-08-25T12:36:25;3.20;;;0.57;;
35632;SDS011;21754;48.216;-1.628;2022-08-25T12:38:52;3.10;;;0.50;;
35632;SDS011;21754;48.216;-1.628;2022-08-25T12:41:22;4.43;;;0.43;;
35632;SDS011;21754;48.216;-1.628;2022-08-25T12:43:49;0.90;;;0.40;;
35632;SDS011;21754;48.216;-1.628;2022-08-25T12:48:53;1.58;;;0.50;;
35632;SDS011;21754;48.216;-1.628;2022-08-25T12:51:20;1.20;;;0.68;;
35632;SDS011;21754;48.216;-1.628;2022-08-25T12:56:21;1.88;;;0.70;;
35632;SDS011;21754;48.216;-1.628;2022-08-25T12:58:49;2.47;;;0.80;;
35632;SDS011;21754;48.216;-1.628;2022-08-25T13:01:22;3.40;;;1.13;;
35632;SDS011;21754;48.216;-1.628;2022-08-25T13:06:37;0.85;;;0.85;;
35632;SDS011;21754;48.216;-1.628;2022-08-25T13:09:12;2.67;;;1.27;;
35632;SDS011;21754;48.216;-1.628;2022-08-25T13:11:50;1.75;;;0.95;;
35632;SDS011;21754;48.216;-1.628;2022-08-25T13:14:20;2.40;;;0.82;;
35632;SDS011;21754;48.216;-1.628;2022-08-25T13:16:55;1.20;;;0.80;;
35632;SDS011;21754;48.216;-1.628;2022-08-25T13:19:21;4.53;;;0.90;;
35632;SDS011;21754;48.216;-1.628;2022-08-25T13:21:47;2.42;;;1.38;;
35632;SDS011;21754;48.216;-1.628;2022-08-25T13:24:17;2.20;;;1.38;;
35632;SDS011;21754;48.216;-1.628;2022-08-25T13:26:44;8.65;;;1.05;;
35632;SDS011;21754;48.216;-1.628;2022-08-25T13:29:12;3.08;;;1.05;;
35632;SDS011;21754;48.216;-1.628;2022-08-25T13:31:49;1.25;;;1.00;;
35632;SDS011;21754;48.216;-1.628;2022-08-25T13:34:16;3.45;;;1.20;;
35632;SDS011;21754;48.216;-1.628;2022-08-25T13:36:44;1.30;;;1.00;;
35632;SDS011;21754;48.216;-1.628;2022-08-25T13:39:29;0.75;;;0.75;;
35632;SDS011;21754;48.216;-1.628;2022-08-25T13:41:57;3.20;;;1.15;;
35632;SDS011;21754;48.216;-1.628;2022-08-25T13:44:24;5.50;;;2.05;;
35632;SDS011;21754;48.216;-1.628;2022-08-25T13:47:07;0.82;;;0.80;;
35632;SDS011;21754;48.216;-1.628;2022-08-25T13:49:33;2.35;;;1.10;;
35632;SDS011;21754;48.216;-1.628;2022-08-25T13:52:00;1.75;;;1.05;;
35632;SDS011;21754;48.216;-1.628;2022-08-25T13:54:27;1.65;;;0.90;;
35632;SDS011;21754;48.216;-1.628;2022-08-25T13:57:01;6.53;;;2.10;;
35632;SDS011;21754;48.216;-1.628;2022-08-25T13:59:30;4.15;;;1.35;;
35632;SDS011;21754;48.216;-1.628;2022-08-25T14:01:59;5.10;;;1.40;;
35632;SDS011;21754;48.216;-1.628;2022-08-25T14:04:29;7.43;;;1.52;;
35632;SDS011;21754;48.216;-1.628;2022-08-25T14:09:53;1.35;;;1.25;;
35632;SDS011;21754;48.216;-1.628;2022-08-25T14:13:05;2.83;;;1.25;;
35632;SDS011;21754;48.216;-1.628;2022-08-25T14:17:38;2.47;;;1.15;;
35632;SDS011;21754;48.216;-1.628;2022-08-25T14:20:14;1.00;;;0.98;;
35632;SDS011;21754;48.216;-1.628;2022-08-25T14:22:41;2.78;;;1.00;;
35632;SDS011;21754;48.216;-1.628;2022-08-25T14:25:07;3.45;;;1.20;;
35632;SDS011;21754;48.216;-1.628;2022-08-25T14:27:33;2.08;;;1.13;;
35632;SDS011;21754;48.216;-1.628;2022-08-25T14:29:58;4.47;;;1.00;;
35632;SDS011;21754;48.216;-1.628;2022-08-25T14:32:24;2.03;;;0.95;;
35632;SDS011;21754;48.216;-1.628;2022-08-25T14:34:51;0.98;;;0.98;;
35632;SDS011;21754;48.216;-1.628;2022-08-25T14:37:17;0.70;;;0.70;;
35632;SDS011;21754;48.216;-1.628;2022-08-25T14:39:44;0.90;;;0.90;;
35632;SDS011;21754;48.216;-1.628;2022-08-25T14:42:10;1.58;;;0.85;;
35632;SDS011;21754;48.216;-1.628;2022-08-25T14:44:37;3.85;;;0.80;;
35632;SDS011;21754;48.216;-1.628;2022-08-25T14:47:04;4.20;;;1.08;;
35632;SDS011;21754;48.216;-1.628;2022-08-25T14:49:32;4.15;;;1.38;;
35632;SDS011;21754;48.216;-1.628;2022-08-25T14:52:03;3.72;;;0.90;;
35632;SDS011;21754;48.216;-1.628;2022-08-25T14:54:33;4.35;;;1.23;;
35632;SDS011;21754;48.216;-1.628;2022-08-25T14:56:59;2.05;;;1.08;;
35632;SDS011;21754;48.216;-1.628;2022-08-25T14:59:25;2.25;;;1.48;;
35632;SDS011;21754;48.216;-1.628;2022-08-25T15:01:51;3.28;;;1.15;;
35632;SDS011;21754;48.216;-1.628;2022-08-25T15:04:18;1.13;;;1.02;;
35632;SDS011;21754;48.216;-1.628;2022-08-25T15:06:46;3.53;;;1.35;;
35632;SDS011;21754;48.216;-1.628;2022-08-25T15:09:18;2.78;;;1.10;;
35632;SDS011;21754;48.216;-1.628;2022-08-25T15:11:49;1.43;;;1.10;;
35632;SDS011;21754;48.216;-1.628;2022-08-25T15:14:17;4.50;;;1.27;;
35632;SDS011;21754;48.216;-1.628;2022-08-25T15:16:52;1.10;;;1.00;;
35632;SDS011;21754;48.216;-1.628;2022-08-25T15:19:21;1.67;;;0.93;;
35632;SDS011;21754;48.216;-1.628;2022-08-25T15:21:50;1.08;;;0.90;;
35632;SDS011;21754;48.216;-1.628;2022-08-25T15:24:17;3.53;;;1.02;;
35632;SDS011;21754;48.216;-1.628;2022-08-25T15:26:48;8.30;;;0.98;;
35632;SDS011;21754;48.216;-1.628;2022-08-25T15:29:17;1.33;;;0.98;;
35632;SDS011;21754;48.216;-1.628;2022-08-25T15:31:43;3.42;;;1.40;;
35632;SDS011;21754;48.216;-1.628;2022-08-25T15:34:10;9.95;;;1.10;;
35632;SDS011;21754;48.216;-1.628;2022-08-25T15:36:36;8.00;;;0.90;;
35632;SDS011;21754;48.216;-1.628;2022-08-25T15:39:03;5.78;;;1.85;;
35632;SDS011;21754;48.216;-1.628;2022-08-25T15:41:30;4.80;;;1.38;;
35632;SDS011;21754;48.216;-1.628;2022-08-25T15:43:56;1.30;;;1.20;;
35632;SDS011;21754;48.216;-1.628;2022-08-25T15:46:24;3.47;;;1.10;;
35632;SDS011;21754;48.216;-1.628;2022-08-25T15:48:54;3.92;;;1.00;;
35632;SDS011;21754;48.216;-1.628;2022-08-25T15:51:23;7.88;;;1.73;;
35632;SDS011;21754;48.216;-1.628;2022-08-25T15:53:50;2.47;;;1.70;;
35632;SDS011;21754;48.216;-1.628;2022-08-25T15:56:16;7.13;;;1.98;;
35632;SDS011;21754;48.216;-1.628;2022-08-25T15:58:43;6.22;;;2.10;;
35632;SDS011;21754;48.216;-1.628;2022-08-25T16:01:14;6.85;;;2.00;;
35632;SDS011;21754;48.216;-1.628;2022-08-25T16:03:45;4.38;;;2.00;;
35632;SDS011;21754;48.216;-1.628;2022-08-25T16:06:11;2.33;;;1.40;;
35632;SDS011;21754;48.216;-1.628;2022-08-25T16:08:37;6.78;;;1.95;;
35632;SDS011;21754;48.216;-1.628;2022-08-25T16:11:03;6.05;;;1.65;;
35632;SDS011;21754;48.216;-1.628;2022-08-25T16:13:30;4.88;;;1.90;;
35632;SDS011;21754;48.216;-1.628;2022-08-25T16:15:57;3.63;;;1.77;;
35632;SDS011;21754;48.216;-1.628;2022-08-25T16:18:23;7.85;;;2.08;;
35632;SDS011;21754;48.216;-1.628;2022-08-25T16:20:50;2.85;;;1.40;;
35632;SDS011;21754;48.216;-1.628;2022-08-25T16:23:16;2.53;;;1.00;;
35632;SDS011;21754;48.216;-1.628;2022-08-25T16:25:45;2.78;;;1.15;;
35632;SDS011;21754;48.216;-1.628;2022-08-25T16:28:12;5.20;;;1.10;;
35632;SDS011;21754;48.216;-1.628;2022-08-25T16:30:39;1.95;;;1.30;;
35632;SDS011;21754;48.216;-1.628;2022-08-25T16:33:09;1.33;;;1.20;;
35632;SDS011;21754;48.216;-1.628;2022-08-25T16:35:35;2.78;;;0.90;;
35632;SDS011;21754;48.216;-1.628;2022-08-25T16:38:01;3.50;;;1.13;;
35632;SDS011;21754;48.216;-1.628;2022-08-25T16:40:28;2.50;;;1.02;;
35632;SDS011;21754;48.216;-1.628;2022-08-25T16:42:55;1.17;;;0.95;;
35632;SDS011;21754;48.216;-1.628;2022-08-25T16:45:21;4.13;;;1.38;;